sensor_id;sensor_type;location;lat;lon;timestamp;P1;durP1;ratioP1;P2;durP2;ratioP2
12306;SDS011;6216;51.146;7.008;2022-11-20T00:00:54;12.33;;;9.40;;
12306;SDS011;6216;51.146;7.008;2022-11-20T00:03:22;10.63;;;9.53;;
12306;SDS011;6216;51.146;7.008;2022-11-20T00:05:50;9.23;;;8.33;;
12306;SDS011;6216;51.146;7.008;2022-11-20T00:08:18;11.20;;;10.00;;
12306;SDS011;6216;51.146;7.008;2022-11-20T00:10:45;11.47;;;9.73;;
12306;SDS011;6216;51.146;7.008;2022-11-20T00:13:13;11.60;;;10.30;;
12306;SDS011;6216;51.146;7.008;2022-11-20T00:15:42;9.87;;;8.87;;
12306;SDS011;6216;51.146;7.008;2022-11-20T00:18:10;10.83;;;8.47;;
12306;SDS011;6216;51.146;7.008;2022-11-20T00:20:38;10.23;;;8.10;;
12306;SDS011;6216;51.146;7.008;2022-11-20T00:23:06;10.83;;;9.83;;
12306;SDS011;6216;51.146;7.008;2022-11-20T00:25:35;9.37;;;8.20;;
12306;SDS011;6216;51.146;7.008;2022-11-20T00:28:03;11.10;;;10.03;;
12306;SDS011;6216;51.146;7.008;2022-11-20T00:30:31;11.30;;;10.13;;
12306;SDS011;6216;51.146;7.008;2022-11-20T00:33:00;10.90;;;9.80;;
12306;SDS011;6216;51.146;7.008;2022-11-20T00:35:28;10.17;;;9.00;;
12306;SDS011;6216;51.146;7.008;2022-11-20T00:37:56;10.43;;;8.60;;
12306;SDS011;6216;51.146;7.008;2022-11-20T00:40:24;11.27;;;8.40;;
12306;SDS011;6216;51.146;7.008;2022-11-20T00:42:52;13.47;;;10.53;;
12306;SDS011;6216;51.146;7.008;2022-11-20T00:45:20;11.23;;;10.13;;
12306;SDS011;6216;51.146;7.008;2022-11-20T00:47:48;10.50;;;9.50;;
12306;SDS011;6216;51.146;7.008;2022-11-20T00:50:17;10.03;;;8.90;;
12306;SDS011;6216;51.146;7.008;2022-11-20T00:52:45;11.07;;;9.87;;
12306;SDS011;6216;51.146;7.008;2022-11-20T00:55:12;11.87;;;10.67;;
12306;SDS011;6216;51.146;7.008;2022-11-20T00:57:40;11.80;;;9.30;;
12306;SDS011;6216;51.146;7.008;2022-11-20T01:00:09;10.37;;;8.93;;
12306;SDS011;6216;51.146;7.008;2022-11-20T01:02:37;10.07;;;8.10;;
12306;SDS011;6216;51.146;7.008;2022-11-20T01:05:05;12.17;;;10.97;;
12306;SDS011;6216;51.146;7.008;2022-11-20T01:07:34;9.90;;;8.77;;
12306;SDS011;6216;51.146;7.008;2022-11-20T01:10:02;12.13;;;8.87;;
12306;SDS011;6216;51.146;7.008;2022-11-20T01:12:31;11.30;;;10.30;;
12306;SDS011;6216;51.146;7.008;2022-11-20T01:14:59;14.77;;;11.17;;
12306;SDS011;6216;51.146;7.008;2022-11-20T01:17:26;11.47;;;8.80;;
12306;SDS011;6216;51.146;7.008;2022-11-20T01:19:54;12.20;;;10.93;;
12306;SDS011;6216;51.146;7.008;2022-11-20T01:22:22;11.80;;;10.40;;
12306;SDS011;6216;51.146;7.008;2022-11-20T01:24:51;11.57;;;9.20;;
12306;SDS011;6216;51.146;7.008;2022-11-20T01:27:19;12.97;;;11.67;;
12306;SDS011;6216;51.146;7.008;2022-11-20T01:29:47;12.30;;;11.10;;
12306;SDS011;6216;51.146;7.008;2022-11-20T01:32:15;12.17;;;10.90;;
12306;SDS011;6216;51.146;7.008;2022-11-20T01:34:43;14.83;;;10.30;;
12306;SDS011;6216;51.146;7.008;2022-11-20T01:37:11;10.27;;;9.03;;
12306;SDS011;6216;51.146;7.008;2022-11-20T01:39:39;12.93;;;11.63;;
12306;SDS011;6216;51.146;7.008;2022-11-20T01:42:08;11.10;;;9.60;;
12306;SDS011;6216;51.146;7.008;2022-11-20T01:44:54;11.17;;;9.53;;
12306;SDS011;6216;51.146;7.008;2022-11-20T01:47:25;11.97;;;9.00;;
12306;SDS011;6216;51.146;7.008;2022-11-20T01:49:58;10.60;;;9.10;;
12306;SDS011;6216;51.146;7.008;2022-11-20T01:52:30;12.67;;;11.40;;
12306;SDS011;6216;51.146;7.008;2022-11-20T01:55:04;12.73;;;11.43;;
12306;SDS011;6216;51.146;7.008;2022-11-20T01:57:34;11.17;;;9.10;;
12306;SDS011;6216;51.146;7.008;2022-11-20T02:00:05;12.07;;;10.90;;
12306;SDS011;6216;51.146;7.008;2022-11-20T02:02:35;10.37;;;9.07;;
12306;SDS011;6216;51.146;7.008;2022-11-20T02:05:08;11.77;;;9.30;;
12306;SDS011;6216;51.146;7.008;2022-11-20T02:07:41;13.07;;;9.30;;
12306;SDS011;6216;51.146;7.008;2022-11-20T02:10:09;10.50;;;9.03;;
12306;SDS011;6216;51.146;7.008;2022-11-20T02:12:39;12.73;;;11.43;;
12306;SDS011;6216;51.146;7.008;2022-11-20T02:15:25;12.33;;;8.80;;
12306;SDS011;6216;51.146;7.008;2022-11-20T02:17:55;11.63;;;9.47;;
12306;SDS011;6216;51.146;7.008;2022-11-20T02:20:24;10.30;;;9.20;;
12306;SDS011;6216;51.146;7.008;2022-11-20T02:22:53;13.50;;;12.07;;
12306;SDS011;6216;51.146;7.008;2022-11-20T02:25:26;12.57;;;11.37;;
12306;SDS011;6216;51.146;7.008;2022-11-20T02:27:56;12.47;;;11.17;;
12306;SDS011;6216;51.146;7.008;2022-11-20T02:30:24;13.53;;;12.13;;
12306;SDS011;6216;51.146;7.008;2022-11-20T02:32:52;13.70;;;11.67;;
12306;SDS011;6216;51.146;7.008;2022-11-20T02:35:39;13.65;;;11.63;;
12306;SDS011;6216;51.146;7.008;2022-11-20T02:38:12;12.80;;;11.50;;
12306;SDS011;6216;51.146;7.008;2022-11-20T02:40:42;11.02;;;9.05;;
12306;SDS011;6216;51.146;7.008;2022-11-20T02:43:10;12.70;;;11.40;;
12306;SDS011;6216;51.146;7.008;2022-11-20T02:45:38;12.33;;;11.03;;
12306;SDS011;6216;51.146;7.008;2022-11-20T02:48:06;12.13;;;9.73;;
12306;SDS011;6216;51.146;7.008;2022-11-20T02:50:36;13.20;;;11.77;;
12306;SDS011;6216;51.146;7.008;2022-11-20T02:53:05;12.07;;;10.87;;
12306;SDS011;6216;51.146;7.008;2022-11-20T02:55:33;12.53;;;9.93;;
12306;SDS011;6216;51.146;7.008;2022-11-20T02:58:02;12.70;;;11.40;;
12306;SDS011;6216;51.146;7.008;2022-11-20T03:00:30;11.80;;;9.40;;
12306;SDS011;6216;51.146;7.008;2022-11-20T03:02:59;12.98;;;11.77;;
12306;SDS011;6216;51.146;7.008;2022-11-20T03:05:28;13.03;;;11.73;;
12306;SDS011;6216;51.146;7.008;2022-11-20T03:07:56;13.27;;;11.87;;
12306;SDS011;6216;51.146;7.008;2022-11-20T03:10:24;13.80;;;12.40;;
12306;SDS011;6216;51.146;7.008;2022-11-20T03:12:52;12.60;;;10.23;;
12306;SDS011;6216;51.146;7.008;2022-11-20T03:15:23;14.20;;;11.63;;
12306;SDS011;6216;51.146;7.008;2022-11-20T03:17:52;12.30;;;11.10;;
12306;SDS011;6216;51.146;7.008;2022-11-20T03:20:21;11.00;;;9.83;;
12306;SDS011;6216;51.146;7.008;2022-11-20T03:22:49;12.87;;;11.60;;
12306;SDS011;6216;51.146;7.008;2022-11-20T03:25:17;11.60;;;10.40;;
12306;SDS011;6216;51.146;7.008;2022-11-20T03:27:45;12.33;;;11.03;;
12306;SDS011;6216;51.146;7.008;2022-11-20T03:30:13;12.55;;;10.50;;
12306;SDS011;6216;51.146;7.008;2022-11-20T03:32:43;14.00;;;12.52;;
12306;SDS011;6216;51.146;7.008;2022-11-20T03:35:11;14.13;;;12.63;;
12306;SDS011;6216;51.146;7.008;2022-11-20T03:37:38;13.13;;;11.50;;
12306;SDS011;6216;51.146;7.008;2022-11-20T03:40:07;11.63;;;9.63;;
12306;SDS011;6216;51.146;7.008;2022-11-20T03:42:36;12.97;;;10.07;;
12306;SDS011;6216;51.146;7.008;2022-11-20T03:45:13;13.90;;;9.80;;
12306;SDS011;6216;51.146;7.008;2022-11-20T03:47:42;12.63;;;11.43;;
12306;SDS011;6216;51.146;7.008;2022-11-20T03:50:11;12.40;;;10.13;;
12306;SDS011;6216;51.146;7.008;2022-11-20T03:52:40;10.60;;;9.13;;
12306;SDS011;6216;51.146;7.008;2022-11-20T03:55:08;14.27;;;10.43;;
12306;SDS011;6216;51.146;7.008;2022-11-20T03:57:36;12.07;;;9.90;;
12306;SDS011;6216;51.146;7.008;2022-11-20T04:00:05;13.10;;;10.33;;
12306;SDS011;6216;51.146;7.008;2022-11-20T04:02:33;12.23;;;8.83;;
12306;SDS011;6216;51.146;7.008;2022-11-20T04:05:03;13.48;;;12.07;;
12306;SDS011;6216;51.146;7.008;2022-11-20T04:07:33;14.00;;;12.53;;
12306;SDS011;6216;51.146;7.008;2022-11-20T04:10:01;11.57;;;9.57;;
12306;SDS011;6216;51.146;7.008;2022-11-20T04:12:31;13.60;;;10.20;;
12306;SDS011;6216;51.146;7.008;2022-11-20T04:15:00;12.80;;;9.37;;
12306;SDS011;6216;51.146;7.008;2022-11-20T04:17:28;12.25;;;10.95;;
12306;SDS011;6216;51.146;7.008;2022-11-20T04:19:56;13.60;;;12.20;;
12306;SDS011;6216;51.146;7.008;2022-11-20T04:22:26;11.68;;;9.10;;
12306;SDS011;6216;51.146;7.008;2022-11-20T04:24:53;12.93;;;11.57;;
12306;SDS011;6216;51.146;7.008;2022-11-20T04:27:21;13.03;;;11.70;;
12306;SDS011;6216;51.146;7.008;2022-11-20T04:29:49;13.03;;;11.73;;
12306;SDS011;6216;51.146;7.008;2022-11-20T04:32:17;12.00;;;10.10;;
12306;SDS011;6216;51.146;7.008;2022-11-20T04:34:45;12.40;;;11.20;;
12306;SDS011;6216;51.146;7.008;2022-11-20T04:37:13;12.10;;;9.40;;
12306;SDS011;6216;51.146;7.008;2022-11-20T04:39:42;11.43;;;8.93;;
12306;SDS011;6216;51.146;7.008;2022-11-20T04:42:10;12.13;;;9.83;;
12306;SDS011;6216;51.146;7.008;2022-11-20T04:44:56;12.47;;;11.17;;
12306;SDS011;6216;51.146;7.008;2022-11-20T04:47:24;13.40;;;10.88;;
12306;SDS011;6216;51.146;7.008;2022-11-20T04:49:52;11.23;;;8.80;;
12306;SDS011;6216;51.146;7.008;2022-11-20T04:52:20;10.63;;;8.57;;
12306;SDS011;6216;51.146;7.008;2022-11-20T04:54:50;11.63;;;8.93;;
12306;SDS011;6216;51.146;7.008;2022-11-20T04:57:19;10.17;;;8.77;;
12306;SDS011;6216;51.146;7.008;2022-11-20T04:59:47;11.88;;;8.88;;
12306;SDS011;6216;51.146;7.008;2022-11-20T05:02:15;9.45;;;8.45;;
12306;SDS011;6216;51.146;7.008;2022-11-20T05:04:43;12.50;;;11.20;;
12306;SDS011;6216;51.146;7.008;2022-11-20T05:07:11;14.03;;;9.23;;
12306;SDS011;6216;51.146;7.008;2022-11-20T05:09:39;12.13;;;10.90;;
12306;SDS011;6216;51.146;7.008;2022-11-20T05:12:08;10.93;;;9.60;;
12306;SDS011;6216;51.146;7.008;2022-11-20T05:14:36;10.10;;;9.07;;
12306;SDS011;6216;51.146;7.008;2022-11-20T05:17:04;10.43;;;9.23;;
12306;SDS011;6216;51.146;7.008;2022-11-20T05:19:32;11.68;;;10.45;;
12306;SDS011;6216;51.146;7.008;2022-11-20T05:22:00;10.87;;;9.43;;
12306;SDS011;6216;51.146;7.008;2022-11-20T05:24:28;12.70;;;11.40;;
12306;SDS011;6216;51.146;7.008;2022-11-20T05:26:56;14.77;;;12.03;;
12306;SDS011;6216;51.146;7.008;2022-11-20T05:29:25;10.87;;;9.27;;
12306;SDS011;6216;51.146;7.008;2022-11-20T05:31:53;12.38;;;11.10;;
12306;SDS011;6216;51.146;7.008;2022-11-20T05:34:21;11.98;;;10.60;;
12306;SDS011;6216;51.146;7.008;2022-11-20T05:36:49;12.68;;;11.32;;
12306;SDS011;6216;51.146;7.008;2022-11-20T05:39:17;11.50;;;10.40;;
12306;SDS011;6216;51.146;7.008;2022-11-20T05:41:45;10.43;;;8.68;;
12306;SDS011;6216;51.146;7.008;2022-11-20T05:44:35;11.85;;;10.70;;
12306;SDS011;6216;51.146;7.008;2022-11-20T05:47:03;12.40;;;11.20;;
12306;SDS011;6216;51.146;7.008;2022-11-20T05:49:30;13.50;;;12.00;;
12306;SDS011;6216;51.146;7.008;2022-11-20T05:51:59;11.50;;;9.47;;
12306;SDS011;6216;51.146;7.008;2022-11-20T05:54:27;12.52;;;11.23;;
12306;SDS011;6216;51.146;7.008;2022-11-20T05:56:54;13.63;;;12.23;;
12306;SDS011;6216;51.146;7.008;2022-11-20T05:59:22;11.05;;;9.20;;
12306;SDS011;6216;51.146;7.008;2022-11-20T06:01:51;12.87;;;11.47;;
12306;SDS011;6216;51.146;7.008;2022-11-20T06:04:19;12.57;;;11.27;;
12306;SDS011;6216;51.146;7.008;2022-11-20T06:06:47;12.33;;;11.03;;
12306;SDS011;6216;51.146;7.008;2022-11-20T06:09:15;12.20;;;10.93;;
12306;SDS011;6216;51.146;7.008;2022-11-20T06:11:43;12.70;;;11.40;;
12306;SDS011;6216;51.146;7.008;2022-11-20T06:14:11;12.82;;;11.40;;
12306;SDS011;6216;51.146;7.008;2022-11-20T06:16:39;11.77;;;10.67;;
12306;SDS011;6216;51.146;7.008;2022-11-20T06:19:08;12.90;;;11.60;;
12306;SDS011;6216;51.146;7.008;2022-11-20T06:21:36;12.80;;;11.45;;
12306;SDS011;6216;51.146;7.008;2022-11-20T06:24:04;10.20;;;9.07;;
12306;SDS011;6216;51.146;7.008;2022-11-20T06:26:33;12.67;;;11.37;;
12306;SDS011;6216;51.146;7.008;2022-11-20T06:29:01;9.88;;;8.63;;
12306;SDS011;6216;51.146;7.008;2022-11-20T06:31:28;12.15;;;11.00;;
12306;SDS011;6216;51.146;7.008;2022-11-20T06:33:58;11.53;;;9.00;;
12306;SDS011;6216;51.146;7.008;2022-11-20T06:36:28;10.93;;;9.30;;
12306;SDS011;6216;51.146;7.008;2022-11-20T06:38:56;11.90;;;10.70;;
12306;SDS011;6216;51.146;7.008;2022-11-20T06:41:24;13.25;;;11.77;;
12306;SDS011;6216;51.146;7.008;2022-11-20T06:43:51;13.33;;;9.20;;
12306;SDS011;6216;51.146;7.008;2022-11-20T06:46:19;10.57;;;8.47;;
12306;SDS011;6216;51.146;7.008;2022-11-20T06:48:48;11.20;;;9.17;;
12306;SDS011;6216;51.146;7.008;2022-11-20T06:51:17;12.17;;;10.77;;
12306;SDS011;6216;51.146;7.008;2022-11-20T06:53:47;12.18;;;9.40;;
12306;SDS011;6216;51.146;7.008;2022-11-20T06:56:15;11.63;;;9.00;;
12306;SDS011;6216;51.146;7.008;2022-11-20T06:58:43;10.83;;;9.00;;
12306;SDS011;6216;51.146;7.008;2022-11-20T07:01:12;11.30;;;8.97;;
12306;SDS011;6216;51.146;7.008;2022-11-20T07:03:41;9.33;;;8.43;;
12306;SDS011;6216;51.146;7.008;2022-11-20T07:06:09;12.27;;;11.07;;
12306;SDS011;6216;51.146;7.008;2022-11-20T07:08:37;12.53;;;9.20;;
12306;SDS011;6216;51.146;7.008;2022-11-20T07:11:07;12.38;;;8.82;;
12306;SDS011;6216;51.146;7.008;2022-11-20T07:13:35;13.33;;;12.03;;
12306;SDS011;6216;51.146;7.008;2022-11-20T07:16:05;12.57;;;10.20;;
12306;SDS011;6216;51.146;7.008;2022-11-20T07:18:35;12.80;;;11.40;;
12306;SDS011;6216;51.146;7.008;2022-11-20T07:21:03;14.40;;;12.25;;
12306;SDS011;6216;51.146;7.008;2022-11-20T07:23:33;13.87;;;12.30;;
12306;SDS011;6216;51.146;7.008;2022-11-20T07:26:02;10.60;;;9.30;;
12306;SDS011;6216;51.146;7.008;2022-11-20T07:28:32;11.45;;;8.65;;
12306;SDS011;6216;51.146;7.008;2022-11-20T07:31:01;11.85;;;9.48;;
12306;SDS011;6216;51.146;7.008;2022-11-20T07:33:29;13.25;;;11.95;;
12306;SDS011;6216;51.146;7.008;2022-11-20T07:35:58;13.05;;;10.85;;
12306;SDS011;6216;51.146;7.008;2022-11-20T07:38:26;13.23;;;11.83;;
12306;SDS011;6216;51.146;7.008;2022-11-20T07:40:54;13.03;;;11.63;;
12306;SDS011;6216;51.146;7.008;2022-11-20T07:43:25;12.83;;;11.50;;
12306;SDS011;6216;51.146;7.008;2022-11-20T07:45:55;12.57;;;11.27;;
12306;SDS011;6216;51.146;7.008;2022-11-20T07:48:24;12.32;;;11.02;;
12306;SDS011;6216;51.146;7.008;2022-11-20T07:50:53;10.77;;;9.05;;
12306;SDS011;6216;51.146;7.008;2022-11-20T07:53:21;13.20;;;9.55;;
12306;SDS011;6216;51.146;7.008;2022-11-20T07:55:49;10.15;;;8.98;;
12306;SDS011;6216;51.146;7.008;2022-11-20T07:58:18;12.05;;;9.48;;
12306;SDS011;6216;51.146;7.008;2022-11-20T08:00:46;14.20;;;12.15;;
12306;SDS011;6216;51.146;7.008;2022-11-20T08:03:16;13.45;;;10.38;;
12306;SDS011;6216;51.146;7.008;2022-11-20T08:05:50;10.63;;;8.90;;
12306;SDS011;6216;51.146;7.008;2022-11-20T08:08:18;13.30;;;11.90;;
12306;SDS011;6216;51.146;7.008;2022-11-20T08:10:45;10.65;;;9.05;;
12306;SDS011;6216;51.146;7.008;2022-11-20T08:13:13;12.25;;;11.05;;
12306;SDS011;6216;51.146;7.008;2022-11-20T08:15:59;12.85;;;9.95;;
12306;SDS011;6216;51.146;7.008;2022-11-20T08:18:28;10.93;;;9.38;;
12306;SDS011;6216;51.146;7.008;2022-11-20T08:20:57;13.37;;;12.00;;
12306;SDS011;6216;51.146;7.008;2022-11-20T08:23:28;12.73;;;10.38;;
12306;SDS011;6216;51.146;7.008;2022-11-20T08:25:56;13.05;;;11.75;;
12306;SDS011;6216;51.146;7.008;2022-11-20T08:28:24;14.38;;;10.63;;
12306;SDS011;6216;51.146;7.008;2022-11-20T08:30:57;13.37;;;11.97;;
12306;SDS011;6216;51.146;7.008;2022-11-20T08:33:27;13.80;;;10.75;;
12306;SDS011;6216;51.146;7.008;2022-11-20T08:35:58;13.40;;;11.97;;
12306;SDS011;6216;51.146;7.008;2022-11-20T08:38:27;13.52;;;11.75;;
12306;SDS011;6216;51.146;7.008;2022-11-20T08:40:56;13.60;;;12.07;;
12306;SDS011;6216;51.146;7.008;2022-11-20T08:43:41;13.77;;;12.38;;
12306;SDS011;6216;51.146;7.008;2022-11-20T08:46:09;14.60;;;13.10;;
12306;SDS011;6216;51.146;7.008;2022-11-20T08:48:39;10.90;;;9.67;;
12306;SDS011;6216;51.146;7.008;2022-11-20T08:51:07;14.03;;;12.57;;
12306;SDS011;6216;51.146;7.008;2022-11-20T08:53:35;13.65;;;12.15;;
12306;SDS011;6216;51.146;7.008;2022-11-20T08:56:03;13.77;;;11.50;;
12306;SDS011;6216;51.146;7.008;2022-11-20T08:58:31;12.05;;;9.95;;
12306;SDS011;6216;51.146;7.008;2022-11-20T09:01:19;12.30;;;10.47;;
12306;SDS011;6216;51.146;7.008;2022-11-20T09:03:50;15.15;;;12.80;;
12306;SDS011;6216;51.146;7.008;2022-11-20T09:06:18;12.67;;;11.37;;
12306;SDS011;6216;51.146;7.008;2022-11-20T09:08:46;14.85;;;11.05;;
12306;SDS011;6216;51.146;7.008;2022-11-20T09:11:14;13.40;;;10.20;;
12306;SDS011;6216;51.146;7.008;2022-11-20T09:13:42;15.10;;;12.83;;
12306;SDS011;6216;51.146;7.008;2022-11-20T09:16:10;13.60;;;11.43;;
12306;SDS011;6216;51.146;7.008;2022-11-20T09:18:37;12.60;;;10.20;;
12306;SDS011;6216;51.146;7.008;2022-11-20T09:21:09;14.40;;;11.00;;
12306;SDS011;6216;51.146;7.008;2022-11-20T09:23:38;14.10;;;10.63;;
12306;SDS011;6216;51.146;7.008;2022-11-20T09:26:07;15.27;;;12.68;;
12306;SDS011;6216;51.146;7.008;2022-11-20T09:28:38;14.23;;;11.07;;
12306;SDS011;6216;51.146;7.008;2022-11-20T09:31:06;16.03;;;13.90;;
12306;SDS011;6216;51.146;7.008;2022-11-20T09:33:35;13.43;;;11.13;;
12306;SDS011;6216;51.146;7.008;2022-11-20T09:36:03;13.27;;;10.80;;
12306;SDS011;6216;51.146;7.008;2022-11-20T09:38:33;14.40;;;12.75;;
12306;SDS011;6216;51.146;7.008;2022-11-20T09:41:03;13.97;;;12.47;;
12306;SDS011;6216;51.146;7.008;2022-11-20T09:43:36;13.32;;;11.07;;
12306;SDS011;6216;51.146;7.008;2022-11-20T09:46:13;13.03;;;11.63;;
12306;SDS011;6216;51.146;7.008;2022-11-20T09:48:52;15.88;;;13.38;;
12306;SDS011;6216;51.146;7.008;2022-11-20T09:51:31;16.83;;;13.13;;
12306;SDS011;6216;51.146;7.008;2022-11-20T09:54:11;13.80;;;10.90;;
12306;SDS011;6216;51.146;7.008;2022-11-20T09:56:44;13.87;;;12.47;;
12306;SDS011;6216;51.146;7.008;2022-11-20T09:59:18;11.30;;;9.73;;
12306;SDS011;6216;51.146;7.008;2022-11-20T10:01:56;12.50;;;9.80;;
12306;SDS011;6216;51.146;7.008;2022-11-20T10:04:26;12.13;;;10.30;;
12306;SDS011;6216;51.146;7.008;2022-11-20T10:07:02;12.53;;;11.20;;
12306;SDS011;6216;51.146;7.008;2022-11-20T10:09:56;12.80;;;11.43;;
12306;SDS011;6216;51.146;7.008;2022-11-20T10:12:27;11.83;;;9.83;;
12306;SDS011;6216;51.146;7.008;2022-11-20T10:15:07;11.77;;;9.23;;
12306;SDS011;6216;51.146;7.008;2022-11-20T10:17:48;11.87;;;10.57;;
12306;SDS011;6216;51.146;7.008;2022-11-20T10:20:27;13.07;;;9.53;;
12306;SDS011;6216;51.146;7.008;2022-11-20T10:23:06;14.17;;;10.93;;
12306;SDS011;6216;51.146;7.008;2022-11-20T10:25:54;11.80;;;10.03;;
12306;SDS011;6216;51.146;7.008;2022-11-20T10:28:30;13.07;;;11.60;;
12306;SDS011;6216;51.146;7.008;2022-11-20T10:31:25;14.47;;;11.57;;
12306;SDS011;6216;51.146;7.008;2022-11-20T10:33:57;12.63;;;11.30;;
12306;SDS011;6216;51.146;7.008;2022-11-20T10:36:38;11.43;;;9.37;;
12306;SDS011;6216;51.146;7.008;2022-11-20T10:39:12;9.57;;;8.40;;
12306;SDS011;6216;51.146;7.008;2022-11-20T10:41:48;10.47;;;8.57;;
12306;SDS011;6216;51.146;7.008;2022-11-20T10:44:20;12.27;;;9.30;;
12306;SDS011;6216;51.146;7.008;2022-11-20T10:47:12;12.27;;;10.97;;
12306;SDS011;6216;51.146;7.008;2022-11-20T10:49:41;12.23;;;10.03;;
12306;SDS011;6216;51.146;7.008;2022-11-20T10:52:11;9.90;;;8.53;;
12306;SDS011;6216;51.146;7.008;2022-11-20T10:54:47;12.63;;;9.67;;
12306;SDS011;6216;51.146;7.008;2022-11-20T10:57:30;12.33;;;8.70;;
12306;SDS011;6216;51.146;7.008;2022-11-20T11:00:09;15.57;;;12.23;;
12306;SDS011;6216;51.146;7.008;2022-11-20T11:02:39;12.67;;;10.80;;
12306;SDS011;6216;51.146;7.008;2022-11-20T11:05:14;11.57;;;9.27;;
12306;SDS011;6216;51.146;7.008;2022-11-20T11:07:54;12.07;;;10.77;;
12306;SDS011;6216;51.146;7.008;2022-11-20T11:10:24;12.07;;;10.87;;
12306;SDS011;6216;51.146;7.008;2022-11-20T11:12:57;11.27;;;9.37;;
12306;SDS011;6216;51.146;7.008;2022-11-20T11:15:30;13.30;;;9.53;;
12306;SDS011;6216;51.146;7.008;2022-11-20T11:18:05;13.63;;;10.10;;
12306;SDS011;6216;51.146;7.008;2022-11-20T11:20:36;16.00;;;11.00;;
12306;SDS011;6216;51.146;7.008;2022-11-20T11:23:10;11.63;;;9.47;;
12306;SDS011;6216;51.146;7.008;2022-11-20T11:25:56;12.93;;;11.30;;
12306;SDS011;6216;51.146;7.008;2022-11-20T11:28:27;9.93;;;8.93;;
12306;SDS011;6216;51.146;7.008;2022-11-20T11:30:55;13.00;;;10.77;;
12306;SDS011;6216;51.146;7.008;2022-11-20T11:33:24;11.70;;;10.50;;
12306;SDS011;6216;51.146;7.008;2022-11-20T11:35:53;11.20;;;9.87;;
12306;SDS011;6216;51.146;7.008;2022-11-20T11:38:27;10.83;;;9.27;;
12306;SDS011;6216;51.146;7.008;2022-11-20T11:40:57;11.47;;;10.27;;
12306;SDS011;6216;51.146;7.008;2022-11-20T11:43:28;13.03;;;11.60;;
12306;SDS011;6216;51.146;7.008;2022-11-20T11:46:26;11.67;;;10.57;;
12306;SDS011;6216;51.146;7.008;2022-11-20T11:49:15;14.40;;;12.60;;
12306;SDS011;6216;51.146;7.008;2022-11-20T11:51:58;14.33;;;11.70;;
12306;SDS011;6216;51.146;7.008;2022-11-20T11:54:30;13.73;;;10.50;;
12306;SDS011;6216;51.146;7.008;2022-11-20T11:57:05;14.97;;;10.67;;
12306;SDS011;6216;51.146;7.008;2022-11-20T11:59:43;11.73;;;8.60;;
12306;SDS011;6216;51.146;7.008;2022-11-20T12:02:23;13.97;;;12.03;;
12306;SDS011;6216;51.146;7.008;2022-11-20T12:04:59;15.47;;;12.63;;
12306;SDS011;6216;51.146;7.008;2022-11-20T12:07:35;13.93;;;12.00;;
12306;SDS011;6216;51.146;7.008;2022-11-20T12:10:15;17.90;;;11.90;;
12306;SDS011;6216;51.146;7.008;2022-11-20T12:12:51;11.80;;;9.27;;
12306;SDS011;6216;51.146;7.008;2022-11-20T12:15:32;12.97;;;10.03;;
12306;SDS011;6216;51.146;7.008;2022-11-20T12:18:01;13.17;;;11.33;;
12306;SDS011;6216;51.146;7.008;2022-11-20T12:20:31;14.10;;;10.47;;
12306;SDS011;6216;51.146;7.008;2022-11-20T12:23:09;15.07;;;12.50;;
12306;SDS011;6216;51.146;7.008;2022-11-20T12:25:44;13.80;;;11.53;;
12306;SDS011;6216;51.146;7.008;2022-11-20T12:31:26;13.47;;;10.50;;
12306;SDS011;6216;51.146;7.008;2022-11-20T12:36:59;13.03;;;10.03;;
12306;SDS011;6216;51.146;7.008;2022-11-20T12:39:38;15.40;;;11.17;;
12306;SDS011;6216;51.146;7.008;2022-11-20T12:42:15;12.47;;;10.67;;
12306;SDS011;6216;51.146;7.008;2022-11-20T12:45:21;14.90;;;11.30;;
12306;SDS011;6216;51.146;7.008;2022-11-20T12:51:05;14.07;;;11.10;;
12306;SDS011;6216;51.146;7.008;2022-11-20T12:53:51;18.17;;;14.10;;
12306;SDS011;6216;51.146;7.008;2022-11-20T12:56:33;18.10;;;12.73;;
12306;SDS011;6216;51.146;7.008;2022-11-20T12:59:13;16.77;;;13.23;;
12306;SDS011;6216;51.146;7.008;2022-11-20T13:02:03;16.70;;;14.23;;
12306;SDS011;6216;51.146;7.008;2022-11-20T13:04:58;17.23;;;12.80;;
12306;SDS011;6216;51.146;7.008;2022-11-20T13:07:38;16.70;;;12.37;;
12306;SDS011;6216;51.146;7.008;2022-11-20T13:10:13;15.10;;;12.70;;
12306;SDS011;6216;51.146;7.008;2022-11-20T13:12:50;16.60;;;12.10;;
12306;SDS011;6216;51.146;7.008;2022-11-20T13:15:35;17.20;;;14.20;;
12306;SDS011;6216;51.146;7.008;2022-11-20T13:18:11;16.47;;;12.70;;
12306;SDS011;6216;51.146;7.008;2022-11-20T13:21:21;16.47;;;12.00;;
12306;SDS011;6216;51.146;7.008;2022-11-20T13:23:50;19.90;;;15.70;;
12306;SDS011;6216;51.146;7.008;2022-11-20T13:26:19;18.57;;;13.27;;
12306;SDS011;6216;51.146;7.008;2022-11-20T13:32:04;21.77;;;16.03;;
12306;SDS011;6216;51.146;7.008;2022-11-20T13:34:58;20.40;;;15.53;;
12306;SDS011;6216;51.146;7.008;2022-11-20T13:37:30;18.33;;;14.70;;
12306;SDS011;6216;51.146;7.008;2022-11-20T13:42:55;20.77;;;13.13;;
12306;SDS011;6216;51.146;7.008;2022-11-20T13:45:32;19.87;;;14.07;;
12306;SDS011;6216;51.146;7.008;2022-11-20T13:48:04;22.97;;;15.90;;
12306;SDS011;6216;51.146;7.008;2022-11-20T13:50:49;20.83;;;14.57;;
12306;SDS011;6216;51.146;7.008;2022-11-20T13:53:46;22.03;;;15.90;;
12306;SDS011;6216;51.146;7.008;2022-11-20T13:56:25;18.57;;;13.83;;
12306;SDS011;6216;51.146;7.008;2022-11-20T13:59:08;20.50;;;13.37;;
12306;SDS011;6216;51.146;7.008;2022-11-20T14:01:48;17.97;;;13.27;;
12306;SDS011;6216;51.146;7.008;2022-11-20T14:04:18;18.23;;;12.83;;
12306;SDS011;6216;51.146;7.008;2022-11-20T14:06:51;19.77;;;15.33;;
12306;SDS011;6216;51.146;7.008;2022-11-20T14:09:27;19.37;;;14.30;;
12306;SDS011;6216;51.146;7.008;2022-11-20T14:11:56;18.77;;;12.67;;
12306;SDS011;6216;51.146;7.008;2022-11-20T14:14:25;20.13;;;13.60;;
12306;SDS011;6216;51.146;7.008;2022-11-20T14:17:04;19.13;;;12.90;;
12306;SDS011;6216;51.146;7.008;2022-11-20T14:19:33;20.77;;;14.30;;
12306;SDS011;6216;51.146;7.008;2022-11-20T14:22:07;21.60;;;15.07;;
12306;SDS011;6216;51.146;7.008;2022-11-20T14:24:38;25.50;;;16.53;;
12306;SDS011;6216;51.146;7.008;2022-11-20T14:27:10;23.03;;;16.53;;
12306;SDS011;6216;51.146;7.008;2022-11-20T14:29:41;18.40;;;13.60;;
12306;SDS011;6216;51.146;7.008;2022-11-20T14:32:13;24.87;;;15.20;;
12306;SDS011;6216;51.146;7.008;2022-11-20T14:34:44;19.40;;;15.33;;
12306;SDS011;6216;51.146;7.008;2022-11-20T14:37:17;18.57;;;14.53;;
12306;SDS011;6216;51.146;7.008;2022-11-20T14:39:50;21.97;;;14.57;;
12306;SDS011;6216;51.146;7.008;2022-11-20T14:42:20;24.87;;;14.87;;
12306;SDS011;6216;51.146;7.008;2022-11-20T14:44:49;21.80;;;14.33;;
12306;SDS011;6216;51.146;7.008;2022-11-20T14:47:18;21.17;;;14.80;;
12306;SDS011;6216;51.146;7.008;2022-11-20T14:49:49;17.90;;;14.50;;
12306;SDS011;6216;51.146;7.008;2022-11-20T14:52:19;18.50;;;13.43;;
12306;SDS011;6216;51.146;7.008;2022-11-20T14:54:50;19.90;;;13.43;;
12306;SDS011;6216;51.146;7.008;2022-11-20T14:57:23;17.40;;;12.77;;
12306;SDS011;6216;51.146;7.008;2022-11-20T15:00:03;20.63;;;13.03;;
12306;SDS011;6216;51.146;7.008;2022-11-20T15:02:38;19.70;;;14.77;;
12306;SDS011;6216;51.146;7.008;2022-11-20T15:05:06;20.90;;;14.23;;
12306;SDS011;6216;51.146;7.008;2022-11-20T15:07:36;20.37;;;15.87;;
12306;SDS011;6216;51.146;7.008;2022-11-20T15:10:11;16.43;;;12.83;;
12306;SDS011;6216;51.146;7.008;2022-11-20T15:12:47;17.27;;;13.63;;
12306;SDS011;6216;51.146;7.008;2022-11-20T15:15:17;17.80;;;13.67;;
12306;SDS011;6216;51.146;7.008;2022-11-20T15:17:48;14.90;;;12.57;;
12306;SDS011;6216;51.146;7.008;2022-11-20T15:20:16;15.10;;;12.30;;